createdAt,value
2023-02-11T00:00:41.486Z,31.80
2023-02-11T00:03:09.749Z,31.60
2023-02-11T00:05:37.954Z,30.90
2023-02-11T00:08:06.068Z,29.70
2023-02-11T00:10:34.572Z,28.50
2023-02-11T00:13:03.022Z,30.30
2023-02-11T00:15:35.073Z,28.90
2023-02-11T00:18:03.910Z,25.70
2023-02-11T00:20:31.981Z,29.60
2023-02-11T00:23:03.673Z,25.80
2023-02-11T00:25:31.999Z,25.80
2023-02-11T00:28:00.232Z,24.60
2023-02-11T00:30:28.581Z,25.20
2023-02-11T00:32:58.028Z,22.70
2023-02-11T00:35:26.862Z,25.00
2023-02-11T00:37:55.282Z,26.10
2023-02-11T00:40:24.059Z,26.70
2023-02-11T00:42:52.724Z,27.80
2023-02-11T00:45:21.554Z,25.90
2023-02-11T00:47:49.788Z,24.70
2023-02-11T00:50:17.947Z,24.10
2023-02-11T00:52:46.171Z,19.20
2023-02-11T00:55:14.313Z,23.30
2023-02-11T00:57:42.823Z,23.90
2023-02-11T01:00:12.763Z,24.20
2023-02-11T01:02:41.689Z,24.00
2023-02-11T01:05:10.789Z,24.00
2023-02-11T01:07:39.201Z,23.50
2023-02-11T01:10:07.583Z,20.00
2023-02-11T01:12:37.161Z,19.50
2023-02-11T01:15:06.187Z,23.90
2023-02-11T01:17:35.741Z,23.00
2023-02-11T01:20:08.565Z,23.60
2023-02-11T01:22:39.779Z,22.10
2023-02-11T01:25:09.019Z,24.50
2023-02-11T01:27:38.008Z,24.00
2023-02-11T01:30:07.655Z,23.60
2023-02-11T01:32:36.032Z,22.30
2023-02-11T01:35:04.254Z,23.20
2023-02-11T01:37:35.646Z,26.70
2023-02-11T01:40:06.293Z,20.30
2023-02-11T01:42:36.910Z,19.70
2023-02-11T01:45:44.657Z,23.00
2023-02-11T01:48:15.711Z,21.80
2023-02-11T01:50:43.923Z,20.80
2023-02-11T01:53:30.986Z,20.00
2023-02-11T01:56:18.168Z,21.30
2023-02-11T01:58:46.332Z,20.60
2023-02-11T02:01:16.444Z,22.90
2023-02-11T02:03:45.653Z,18.70
2023-02-11T02:06:18.879Z,20.00
2023-02-11T02:08:57.589Z,20.20
2023-02-11T02:11:27.971Z,20.80
2023-02-11T02:13:56.688Z,25.10
2023-02-11T02:16:30.101Z,27.50
2023-02-11T02:19:18.996Z,28.90
2023-02-11T02:22:14.212Z,25.10
2023-02-11T02:25:04.277Z,24.50
2023-02-11T02:27:44.256Z,26.10
2023-02-11T02:30:22.049Z,25.60
2023-02-11T02:33:23.024Z,24.80
2023-02-11T02:35:54.778Z,25.90
2023-02-11T02:38:33.818Z,28.60
2023-02-11T02:41:04.994Z,28.00
2023-02-11T02:43:33.390Z,30.50
2023-02-11T02:46:22.604Z,25.60
2023-02-11T02:48:52.861Z,28.10
2023-02-11T02:51:48.592Z,25.60
2023-02-11T02:54:31.799Z,25.10
2023-02-11T02:57:18.475Z,23.60
2023-02-11T02:59:46.936Z,24.70
2023-02-11T03:02:34.145Z,26.40
2023-02-11T03:05:10.507Z,24.90
2023-02-11T03:07:59.057Z,23.80
2023-02-11T03:10:32.241Z,25.30
2023-02-11T03:13:00.675Z,25.40
2023-02-11T03:15:30.173Z,22.70
2023-02-11T03:17:59.331Z,23.80
2023-02-11T03:20:27.389Z,24.30
2023-02-11T03:22:58.704Z,23.40
2023-02-11T03:25:30.162Z,24.40
2023-02-11T03:28:16.260Z,22.20
2023-02-11T03:30:49.517Z,24.20
2023-02-11T03:33:22.717Z,24.30
2023-02-11T03:35:56.630Z,22.80
2023-02-11T03:38:28.174Z,21.80
2023-02-11T03:40:56.852Z,22.60
2023-02-11T03:43:55.239Z,23.50
2023-02-11T03:46:37.650Z,23.10
2023-02-11T03:49:09.464Z,24.00
2023-02-11T03:51:37.681Z,24.80
2023-02-11T03:54:09.464Z,24.80
2023-02-11T03:56:46.201Z,23.60
2023-02-11T03:59:14.631Z,21.70
2023-02-11T04:01:45.388Z,24.90
2023-02-11T04:04:13.956Z,23.40
2023-02-11T04:06:42.184Z,24.10
2023-02-11T04:09:11.041Z,21.10
2023-02-11T04:11:41.324Z,22.70
2023-02-11T04:14:09.669Z,40.10
2023-02-11T04:16:38.004Z,23.60
2023-02-11T04:21:37.285Z,23.70
2023-02-11T04:24:05.878Z,22.10
2023-02-11T04:26:35.308Z,23.70
2023-02-11T04:29:03.410Z,22.10
2023-02-11T04:31:31.530Z,22.70
2023-02-11T04:33:59.590Z,25.80
2023-02-11T04:36:27.814Z,26.90
2023-02-11T04:38:56.042Z,28.00
2023-02-11T04:41:28.332Z,26.10
2023-02-11T04:43:58.330Z,23.10
2023-02-11T04:46:27.135Z,23.70
2023-02-11T04:48:57.382Z,24.10
2023-02-11T04:51:25.565Z,24.50
2023-02-11T04:53:56.875Z,19.20
2023-02-11T04:56:25.254Z,21.30
2023-02-11T04:58:53.309Z,21.20
2023-02-11T05:01:24.973Z,25.50
2023-02-11T05:03:53.045Z,23.60
2023-02-11T05:06:21.122Z,20.10
2023-02-11T05:08:49.271Z,22.30
2023-02-11T05:11:22.533Z,24.70
2023-02-11T05:13:50.821Z,22.60
2023-02-11T05:16:19.030Z,21.50
2023-02-11T05:18:47.352Z,22.10
2023-02-11T05:21:18.822Z,22.00
2023-02-11T05:23:47.333Z,20.60
2023-02-11T05:26:15.543Z,22.80
2023-02-11T05:28:44.153Z,19.80
2023-02-11T05:31:12.620Z,19.10
2023-02-11T05:33:41.488Z,20.90
2023-02-11T05:36:13.518Z,22.10
2023-02-11T05:38:42.717Z,19.00
2023-02-11T05:41:11.066Z,18.30
2023-02-11T05:43:40.461Z,18.20
2023-02-11T05:46:08.754Z,22.00
2023-02-11T05:48:37.058Z,22.70
2023-02-11T05:51:05.279Z,22.50
2023-02-11T05:53:33.291Z,21.20
2023-02-11T05:56:01.762Z,20.90
2023-02-11T05:58:30.122Z,19.40
2023-02-11T06:00:58.355Z,19.70
2023-02-11T06:03:26.394Z,19.80
2023-02-11T06:05:54.650Z,18.80
2023-02-11T06:08:23.026Z,18.90
2023-02-11T06:10:51.612Z,20.30
2023-02-11T06:13:19.967Z,20.60
2023-02-11T06:15:57.750Z,20.00
2023-02-11T06:18:26.119Z,20.10
2023-02-11T06:20:55.334Z,18.40
2023-02-11T06:23:23.744Z,17.50
2023-02-11T06:25:54.559Z,21.30
2023-02-11T06:28:22.733Z,19.60
2023-02-11T06:30:51.244Z,18.50
2023-02-11T06:33:19.817Z,23.40
2023-02-11T06:35:47.935Z,18.30
2023-02-11T06:38:16.003Z,17.90
2023-02-11T06:40:49.146Z,20.10
2023-02-11T06:43:17.277Z,17.20
2023-02-11T06:45:45.426Z,20.90
2023-02-11T06:48:14.017Z,21.10
2023-02-11T06:50:42.438Z,21.20
2023-02-11T06:53:10.793Z,20.80
2023-02-11T06:55:39.016Z,19.30
2023-02-11T06:58:12.080Z,20.70
2023-02-11T07:00:40.116Z,22.00
2023-02-11T07:03:08.591Z,19.80
2023-02-11T07:05:38.795Z,23.00
2023-02-11T07:10:36.662Z,18.90
2023-02-11T07:13:05.118Z,19.90
2023-02-11T07:15:33.470Z,22.40
2023-02-11T07:18:01.666Z,21.70
2023-02-11T07:20:30.433Z,20.50
2023-02-11T07:23:00.560Z,21.70
2023-02-11T07:25:28.839Z,24.30
2023-02-11T07:27:58.021Z,23.20
2023-02-11T07:30:26.283Z,19.90
2023-02-11T07:32:54.647Z,23.20
2023-02-11T07:35:23.379Z,21.90
2023-02-11T07:37:55.449Z,20.40
2023-02-11T07:40:24.237Z,23.50
2023-02-11T07:42:52.601Z,20.90
2023-02-11T07:45:21.885Z,26.60
2023-02-11T07:47:50.075Z,25.90
2023-02-11T07:50:18.678Z,23.10
2023-02-11T07:52:47.175Z,24.00
2023-02-11T07:55:39.097Z,23.20
2023-02-11T07:58:07.749Z,24.60
2023-02-11T08:00:36.448Z,24.40
2023-02-11T08:03:05.567Z,26.40
2023-02-11T08:05:38.223Z,23.40
2023-02-11T08:08:06.355Z,25.90
2023-02-11T08:10:34.456Z,24.00
2023-02-11T08:13:02.982Z,25.40
2023-02-11T08:15:32.645Z,27.80
2023-02-11T08:18:00.841Z,25.80
2023-02-11T08:20:29.417Z,26.50
2023-02-11T08:22:58.059Z,26.30
2023-02-11T08:25:26.662Z,27.80
2023-02-11T08:27:55.108Z,26.50
2023-02-11T08:30:27.663Z,26.30
2023-02-11T08:32:56.958Z,27.00
2023-02-11T08:35:26.234Z,29.20
2023-02-11T08:37:54.382Z,29.40
2023-02-11T08:40:22.528Z,27.10
2023-02-11T08:42:54.316Z,25.30
2023-02-11T08:45:22.367Z,28.10
2023-02-11T08:47:51.211Z,28.30
2023-02-11T08:50:19.197Z,23.50
2023-02-11T08:52:47.406Z,25.70
2023-02-11T08:55:16.004Z,25.00
2023-02-11T08:57:44.146Z,26.00
2023-02-11T09:00:13.701Z,28.60
2023-02-11T09:02:41.967Z,28.20
2023-02-11T09:05:10.084Z,25.70
2023-02-11T09:07:38.924Z,26.50
2023-02-11T09:10:07.694Z,25.20
2023-02-11T09:12:36.069Z,21.70
2023-02-11T09:15:05.641Z,23.20
2023-02-11T09:17:34.186Z,26.70
2023-02-11T09:20:02.660Z,25.90
2023-02-11T09:22:32.136Z,23.40
2023-02-11T09:25:00.443Z,27.60
2023-02-11T09:27:28.703Z,27.00
2023-02-11T09:29:56.763Z,25.00
2023-02-11T09:32:25.131Z,25.80
2023-02-11T09:34:53.328Z,26.80
2023-02-11T09:37:21.440Z,24.00
2023-02-11T09:39:49.654Z,27.90
2023-02-11T09:42:30.685Z,27.30
2023-02-11T09:45:00.719Z,23.10
2023-02-11T09:47:32.931Z,25.50
2023-02-11T09:50:04.385Z,27.30
2023-02-11T09:52:44.586Z,27.30
2023-02-11T09:55:42.263Z,26.60
2023-02-11T09:58:27.996Z,25.90
2023-02-11T10:01:05.488Z,25.70
2023-02-11T10:03:42.831Z,25.80
2023-02-11T10:06:26.560Z,26.80
2023-02-11T10:09:17.892Z,28.40
2023-02-11T10:11:55.482Z,28.10
2023-02-11T10:14:32.876Z,29.00
2023-02-11T10:17:07.194Z,27.40
2023-02-11T10:19:39.060Z,28.00
2023-02-11T10:22:15.673Z,25.80
2023-02-11T10:24:49.130Z,26.90
2023-02-11T10:27:21.000Z,31.70
2023-02-11T10:29:56.970Z,30.30
2023-02-11T10:32:43.390Z,24.70
2023-02-11T10:35:21.375Z,27.00
2023-02-11T10:37:50.212Z,25.40
2023-02-11T10:40:21.341Z,30.70
2023-02-11T10:42:55.509Z,31.20
2023-02-11T10:45:30.946Z,28.80
2023-02-11T10:48:00.800Z,29.40
2023-02-11T10:50:33.580Z,28.70
2023-02-11T10:53:27.542Z,30.70
2023-02-11T10:55:57.542Z,30.50
2023-02-11T10:58:31.881Z,25.60
2023-02-11T11:01:00.427Z,24.70
2023-02-11T11:03:31.715Z,27.90
2023-02-11T11:06:02.293Z,26.30
2023-02-11T11:08:45.035Z,29.80
2023-02-11T11:11:23.007Z,29.30
2023-02-11T11:14:01.205Z,26.90
2023-02-11T11:16:33.893Z,27.50
2023-02-11T11:19:08.814Z,27.60
2023-02-11T11:21:47.426Z,27.30
2023-02-11T11:24:26.870Z,30.50
2023-02-11T11:27:01.045Z,28.00
2023-02-11T11:30:08.980Z,26.90
2023-02-11T11:32:41.453Z,27.60
2023-02-11T11:35:25.198Z,25.00
2023-02-11T11:37:56.033Z,25.20
2023-02-11T11:40:34.957Z,25.30
2023-02-11T11:43:21.329Z,27.70
2023-02-11T11:45:58.551Z,27.70
2023-02-11T11:48:40.479Z,27.00
2023-02-11T11:51:11.782Z,29.30
2023-02-11T11:53:55.226Z,26.00
2023-02-11T11:56:26.406Z,26.20
2023-02-11T11:58:54.864Z,26.50
2023-02-11T12:01:38.578Z,21.00
2023-02-11T12:04:38.627Z,22.80
2023-02-11T12:07:26.129Z,27.00
2023-02-11T12:10:16.134Z,27.30
2023-02-11T12:12:47.454Z,25.40
2023-02-11T12:15:33.173Z,25.60
2023-02-11T12:18:01.346Z,25.00
2023-02-11T12:21:09.872Z,19.40
2023-02-11T12:23:41.115Z,26.50
2023-02-11T12:26:18.196Z,26.60
2023-02-11T12:29:11.527Z,21.80
2023-02-11T12:32:15.211Z,27.90
2023-02-11T12:35:02.156Z,25.10
2023-02-11T12:37:38.257Z,24.40
2023-02-11T12:40:32.986Z,27.50
2023-02-11T12:43:16.661Z,24.10
2023-02-11T12:45:44.994Z,19.70
2023-02-11T12:48:35.949Z,26.10
2023-02-11T12:51:27.347Z,24.50
2023-02-11T12:56:47.561Z,25.70
2023-02-11T12:59:29.719Z,23.90
2023-02-11T13:01:58.063Z,23.80
2023-02-11T13:04:55.394Z,23.30
2023-02-11T13:07:33.698Z,23.30
2023-02-11T13:10:31.857Z,22.70
2023-02-11T13:13:19.082Z,23.60
2023-02-11T13:15:56.069Z,22.10
2023-02-11T13:18:39.184Z,21.10
2023-02-11T13:21:15.560Z,20.80
2023-02-11T13:24:00.115Z,21.70
2023-02-11T13:26:34.408Z,20.50
2023-02-11T13:29:23.378Z,22.10
2023-02-11T13:32:21.474Z,21.90
2023-02-11T13:34:52.619Z,21.10
2023-02-11T13:37:28.781Z,18.70
2023-02-11T13:39:59.006Z,21.10
2023-02-11T13:44:55.963Z,21.00
2023-02-11T13:47:32.673Z,17.40
2023-02-11T13:50:02.133Z,18.30
2023-02-11T13:52:37.618Z,14.20
2023-02-11T13:55:22.864Z,15.70
2023-02-11T13:58:07.126Z,16.50
2023-02-11T14:00:36.823Z,14.20
2023-02-11T16:59:27.691Z,17.50
2023-02-11T17:01:57.303Z,17.70
2023-02-11T17:04:27.459Z,17.70
2023-02-11T17:07:00.207Z,16.60
2023-02-11T17:09:30.793Z,16.80
2023-02-11T17:12:02.080Z,16.70
2023-02-11T17:14:30.872Z,16.60
2023-02-11T17:16:59.040Z,15.80
2023-02-11T17:19:27.527Z,14.80
2023-02-11T17:21:58.972Z,13.70
2023-02-11T17:24:27.252Z,14.20
2023-02-11T17:26:55.871Z,16.70
2023-02-11T17:29:25.324Z,14.80
2023-02-11T17:31:53.882Z,15.30
2023-02-11T17:34:22.561Z,13.80
2023-02-11T17:36:50.829Z,17.00
2023-02-11T17:39:21.277Z,16.30
2023-02-11T17:41:49.706Z,16.50
2023-02-11T17:44:22.184Z,16.60
2023-02-11T17:46:50.478Z,15.80
2023-02-11T17:49:20.219Z,13.80
2023-02-11T17:51:49.061Z,15.80
2023-02-11T17:54:18.754Z,15.50
2023-02-11T17:56:49.258Z,17.50
2023-02-11T17:59:19.738Z,19.60
2023-02-11T18:01:48.227Z,13.80
2023-02-11T18:04:18.739Z,20.40
2023-02-11T18:06:47.090Z,18.00
2023-02-11T18:09:15.405Z,18.60
2023-02-11T18:11:44.102Z,20.20
2023-02-11T18:14:12.284Z,15.30
2023-02-11T18:16:44.919Z,25.20
2023-02-11T18:19:13.344Z,18.90
2023-02-11T18:21:41.783Z,15.60
2023-02-11T18:24:10.612Z,18.70
2023-02-11T18:26:38.769Z,20.10
2023-02-11T18:29:07.674Z,20.90
2023-02-11T18:31:36.668Z,19.90
2023-02-11T18:34:07.533Z,21.80
2023-02-11T18:36:36.008Z,18.90
2023-02-11T18:39:05.187Z,20.40
2023-02-11T18:41:36.862Z,20.70
2023-02-11T18:44:05.486Z,22.60
2023-02-11T18:46:33.833Z,25.90
2023-02-11T18:49:02.197Z,24.00
2023-02-11T18:51:32.648Z,24.00
2023-02-11T18:54:02.317Z,23.50
2023-02-11T18:56:30.589Z,25.70
2023-02-11T19:01:31.233Z,21.70
2023-02-11T19:06:33.837Z,22.90
2023-02-11T19:09:12.696Z,18.90
2023-02-11T19:11:47.113Z,20.80
2023-02-11T19:14:22.583Z,21.50
2023-02-11T19:16:54.726Z,16.20
2023-02-11T19:19:24.006Z,19.40
2023-02-11T19:21:52.168Z,20.00
2023-02-11T19:24:20.709Z,22.80
2023-02-11T19:26:51.849Z,18.40
2023-02-11T19:29:30.441Z,18.30
2023-02-11T19:32:03.363Z,22.50
2023-02-11T19:34:31.669Z,22.30
2023-02-11T19:37:02.091Z,23.20
2023-02-11T19:39:31.493Z,25.30
2023-02-11T19:41:59.580Z,26.00
2023-02-11T19:44:27.859Z,22.70
2023-02-11T19:46:56.004Z,19.20
2023-02-11T19:49:26.562Z,27.60
2023-02-11T19:51:57.513Z,28.40
2023-02-11T19:54:26.614Z,25.90
2023-02-11T19:56:54.912Z,27.00
2023-02-11T19:59:23.087Z,21.90
2023-02-11T20:01:53.276Z,25.00
2023-02-11T20:06:49.730Z,25.00
2023-02-11T20:09:18.125Z,25.60
2023-02-11T20:11:46.393Z,20.20
2023-02-11T20:14:15.604Z,23.80
2023-02-11T20:16:49.029Z,22.20
2023-02-11T20:19:21.725Z,16.90
2023-02-11T20:21:56.024Z,23.10
2023-02-11T20:24:24.675Z,20.30
2023-02-11T20:26:56.062Z,23.40
2023-02-11T20:29:25.326Z,16.30
2023-02-11T20:31:54.992Z,22.70
2023-02-11T20:34:25.103Z,21.00
2023-02-11T20:36:54.230Z,25.20
2023-02-11T20:39:23.824Z,21.40
2023-02-11T20:41:52.478Z,25.30
2023-02-11T20:44:24.172Z,22.30
2023-02-11T20:46:54.585Z,23.70
2023-02-11T20:49:23.901Z,24.00
2023-02-11T20:51:54.100Z,18.40
2023-02-11T20:54:23.064Z,22.10
2023-02-11T20:56:51.329Z,20.70
2023-02-11T20:59:21.075Z,23.00
2023-02-11T21:01:53.571Z,20.30
2023-02-11T21:04:29.841Z,22.70
2023-02-11T21:07:01.695Z,21.80
2023-02-11T21:09:31.688Z,24.10
2023-02-11T21:12:03.428Z,21.50
2023-02-11T21:14:34.218Z,20.00
2023-02-11T21:17:02.579Z,23.80
2023-02-11T21:19:31.077Z,22.90
2023-02-11T21:22:01.059Z,20.30
2023-02-11T21:24:31.021Z,22.30
2023-02-11T21:26:59.453Z,23.20
2023-02-11T21:29:27.679Z,21.60
2023-02-11T21:31:56.084Z,22.20
2023-02-11T21:34:24.645Z,19.60
2023-02-11T21:36:52.952Z,22.40
2023-02-11T21:39:24.132Z,23.40
2023-02-11T21:41:52.305Z,19.60
2023-02-11T21:44:21.392Z,21.10
2023-02-11T21:46:50.024Z,22.80
2023-02-11T21:49:19.810Z,22.50
2023-02-11T21:54:20.258Z,21.30
2023-02-11T21:56:50.447Z,20.80
2023-02-11T21:59:19.101Z,20.70
2023-02-11T22:01:47.645Z,24.60
2023-02-11T22:04:17.924Z,24.00
2023-02-11T22:06:46.398Z,22.60
2023-02-11T22:09:14.807Z,24.20
2023-02-11T22:11:43.117Z,27.20
2023-02-11T22:14:11.387Z,22.80
2023-02-11T22:16:40.071Z,21.90
2023-02-11T22:19:09.253Z,25.50
2023-02-11T22:21:37.349Z,23.50
2023-02-11T22:24:06.142Z,23.30
2023-02-11T22:26:34.761Z,24.90
2023-02-11T22:29:02.915Z,23.80
2023-02-11T22:31:33.924Z,26.50
2023-02-11T22:34:03.019Z,25.20
2023-02-11T22:36:33.380Z,20.90
2023-02-11T22:41:38.462Z,24.50
2023-02-11T22:44:07.642Z,19.70
2023-02-11T22:46:35.808Z,26.60
2023-02-11T22:49:04.755Z,23.70
2023-02-11T22:51:33.334Z,25.20
2023-02-11T22:54:06.032Z,24.80
2023-02-11T22:56:34.684Z,24.10
2023-02-11T22:59:05.725Z,24.60
2023-02-11T23:01:34.398Z,18.40
2023-02-11T23:04:04.632Z,23.60
2023-02-11T23:06:33.012Z,22.30
2023-02-11T23:09:01.267Z,23.40
2023-02-11T23:11:33.360Z,25.10
2023-02-11T23:14:03.393Z,23.60
2023-02-11T23:16:33.645Z,20.00
2023-02-11T23:19:07.391Z,25.30
2023-02-11T23:21:38.188Z,22.00
2023-02-11T23:24:15.333Z,25.70
2023-02-11T23:26:43.917Z,23.30
2023-02-11T23:29:12.397Z,21.70
2023-02-11T23:31:46.142Z,25.10
2023-02-11T23:34:18.502Z,24.60
2023-02-11T23:36:46.658Z,21.50
2023-02-11T23:39:15.620Z,24.00
2023-02-11T23:41:44.525Z,24.60
2023-02-11T23:44:12.723Z,26.00
2023-02-11T23:46:41.421Z,21.40
2023-02-11T23:49:10.058Z,26.40
2023-02-11T23:51:39.233Z,23.10
2023-02-11T23:54:07.234Z,22.80
2023-02-11T23:56:39.151Z,20.20
2023-02-11T23:59:11.827Z,22.10
